createdAt,value
2022-12-19T00:00:38.210Z,2.78
2022-12-19T00:03:06.257Z,2.42
2022-12-19T00:05:38.006Z,2.88
2022-12-19T00:08:17.434Z,1.40
2022-12-19T00:10:56.225Z,4.03
2022-12-19T00:13:24.831Z,1.83
2022-12-19T00:15:53.184Z,2.33
2022-12-19T00:18:21.228Z,4.10
2022-12-19T00:20:56.468Z,3.95
2022-12-19T00:23:24.540Z,3.70
2022-12-19T00:25:54.102Z,3.35
2022-12-19T00:28:23.319Z,2.72
2022-12-19T00:30:51.640Z,4.63
2022-12-19T00:33:24.438Z,3.55
2022-12-19T00:35:52.325Z,2.58
2022-12-19T00:38:20.263Z,2.85
2022-12-19T00:40:48.256Z,3.28
2022-12-19T00:43:17.585Z,2.40
2022-12-19T00:45:45.539Z,2.63
2022-12-19T00:48:13.579Z,1.73
2022-12-19T00:50:44.200Z,1.33
2022-12-19T00:53:12.116Z,2.95
2022-12-19T00:55:40.135Z,3.40
2022-12-19T00:58:08.079Z,2.30
2022-12-19T01:00:37.490Z,1.95
2022-12-19T01:03:05.806Z,3.75
2022-12-19T01:05:33.819Z,0.95
2022-12-19T01:08:02.251Z,1.85
2022-12-19T01:10:31.317Z,2.08
2022-12-19T01:12:58.383Z,2.70
2022-12-19T01:15:26.323Z,1.75
2022-12-19T01:17:55.697Z,1.90
2022-12-19T01:20:29.295Z,2.92
2022-12-19T01:23:00.204Z,1.10
2022-12-19T01:25:28.618Z,1.63
2022-12-19T01:27:57.885Z,2.85
2022-12-19T01:30:26.124Z,1.50
2022-12-19T01:32:57.526Z,1.10
2022-12-19T01:35:27.928Z,2.20
2022-12-19T01:38:09.151Z,3.35
2022-12-19T01:40:38.024Z,2.15
2022-12-19T01:43:06.786Z,1.58
2022-12-19T01:45:42.168Z,2.15
2022-12-19T01:48:19.863Z,1.20
2022-12-19T01:51:00.814Z,1.08
2022-12-19T01:53:35.579Z,3.35
2022-12-19T01:56:10.565Z,2.75
2022-12-19T01:58:42.797Z,2.20
2022-12-19T02:01:10.791Z,1.42
2022-12-19T02:03:42.486Z,1.33
2022-12-19T02:06:13.632Z,1.58
2022-12-19T02:08:44.337Z,3.35
2022-12-19T02:11:12.532Z,2.97
2022-12-19T02:13:41.064Z,1.13
2022-12-19T02:16:22.819Z,2.55
2022-12-19T02:19:03.393Z,1.63
2022-12-19T02:21:46.128Z,2.13
2022-12-19T02:24:54.470Z,2.85
2022-12-19T02:28:04.060Z,2.60
2022-12-19T02:30:47.479Z,2.95
2022-12-19T02:33:21.287Z,2.03
2022-12-19T02:35:54.640Z,2.03
2022-12-19T02:38:30.230Z,2.63
2022-12-19T02:41:05.792Z,3.40
2022-12-19T02:43:44.078Z,1.55
2022-12-19T02:46:14.552Z,1.90
2022-12-19T02:48:44.409Z,2.25
2022-12-19T02:51:12.467Z,1.20
2022-12-19T02:53:41.115Z,1.73
2022-12-19T02:56:23.055Z,1.48
2022-12-19T02:59:07.078Z,3.50
2022-12-19T03:01:45.752Z,2.63
2022-12-19T03:04:21.601Z,3.63
2022-12-19T03:06:55.075Z,3.00
2022-12-19T03:09:31.902Z,1.65
2022-12-19T03:12:09.137Z,1.10
2022-12-19T03:14:38.796Z,1.98
2022-12-19T03:17:09.437Z,0.90
2022-12-19T03:19:40.774Z,1.70
2022-12-19T03:22:09.018Z,4.90
2022-12-19T03:24:37.004Z,3.70
2022-12-19T03:27:10.653Z,1.05
2022-12-19T03:29:43.857Z,2.83
2022-12-19T03:32:16.246Z,1.80
2022-12-19T03:34:48.934Z,1.30
2022-12-19T03:37:20.161Z,1.65
2022-12-19T03:39:51.940Z,2.42
2022-12-19T03:42:39.917Z,1.45
2022-12-19T03:45:09.898Z,1.35
2022-12-19T03:47:43.321Z,2.50
2022-12-19T03:50:12.454Z,1.38
2022-12-19T03:52:47.243Z,1.95
2022-12-19T03:55:19.295Z,2.22
2022-12-19T03:57:55.580Z,2.55
2022-12-19T04:00:25.246Z,3.72
2022-12-19T04:02:58.148Z,2.42
2022-12-19T04:05:29.392Z,2.30
2022-12-19T04:08:00.149Z,2.08
2022-12-19T04:10:30.000Z,2.05
2022-12-19T04:13:03.446Z,1.83
2022-12-19T04:15:36.334Z,1.52
2022-12-19T04:18:08.264Z,2.40
2022-12-19T04:20:39.786Z,3.05
2022-12-19T04:23:12.573Z,2.67
2022-12-19T04:25:44.540Z,2.58
2022-12-19T04:28:19.553Z,1.98
2022-12-19T04:30:48.387Z,2.65
2022-12-19T04:33:17.914Z,1.60
2022-12-19T04:35:46.000Z,1.45
2022-12-19T04:38:14.018Z,2.15
2022-12-19T04:40:42.022Z,2.92
2022-12-19T04:43:10.536Z,2.40
2022-12-19T04:45:38.581Z,1.75
2022-12-19T04:48:08.102Z,1.88
2022-12-19T04:50:38.338Z,2.65
2022-12-19T04:53:06.784Z,1.45
2022-12-19T04:55:34.758Z,2.75
2022-12-19T04:58:05.535Z,2.17
2022-12-19T05:00:33.627Z,3.13
2022-12-19T05:03:01.756Z,2.92
2022-12-19T05:05:29.997Z,2.42
2022-12-19T05:08:00.758Z,1.58
2022-12-19T05:10:28.789Z,1.52
2022-12-19T05:12:56.660Z,3.63
2022-12-19T05:15:24.771Z,4.13
2022-12-19T05:17:52.814Z,3.28
2022-12-19T05:20:20.745Z,2.42
2022-12-19T05:22:48.641Z,1.90
2022-12-19T05:25:18.234Z,4.50
2022-12-19T05:27:46.245Z,2.15
2022-12-19T05:30:14.717Z,3.95
2022-12-19T05:32:42.696Z,2.88
2022-12-19T05:35:10.789Z,3.15
2022-12-19T05:37:38.773Z,2.45
2022-12-19T05:40:07.954Z,3.13
2022-12-19T05:42:37.395Z,3.42
2022-12-19T05:45:05.972Z,5.18
2022-12-19T05:47:34.023Z,2.60
2022-12-19T05:50:02.089Z,1.90
2022-12-19T05:52:30.036Z,2.97
2022-12-19T05:54:58.066Z,3.67
2022-12-19T05:57:27.017Z,4.35
2022-12-19T05:59:56.418Z,3.08
2022-12-19T06:02:24.562Z,3.13
2022-12-19T06:04:52.741Z,4.00
2022-12-19T06:07:21.358Z,2.45
2022-12-19T06:09:49.562Z,3.00
2022-12-19T06:12:17.614Z,3.45
2022-12-19T06:14:45.595Z,5.50
2022-12-19T06:17:14.960Z,3.83
2022-12-19T06:19:43.036Z,2.75
2022-12-19T06:22:10.920Z,3.78
2022-12-19T06:24:38.979Z,2.45
2022-12-19T06:27:06.935Z,3.85
2022-12-19T06:29:34.867Z,4.22
2022-12-19T06:32:02.845Z,2.90
2022-12-19T06:35:02.672Z,3.55
2022-12-19T06:37:20.401Z,3.08
2022-12-19T06:39:48.316Z,3.72
2022-12-19T06:42:23.975Z,2.90
2022-12-19T06:44:53.664Z,3.83
2022-12-19T06:47:23.622Z,4.18
2022-12-19T06:49:52.969Z,3.75
2022-12-19T06:52:20.893Z,3.80
2022-12-19T06:54:48.745Z,3.17
2022-12-19T06:57:16.711Z,6.22
2022-12-19T06:59:44.729Z,4.68
2022-12-19T07:02:28.464Z,3.95
2022-12-19T07:05:03.150Z,2.88
2022-12-19T07:07:31.281Z,3.47
2022-12-19T07:09:59.395Z,4.03
2022-12-19T07:12:27.948Z,2.97
2022-12-19T07:14:55.919Z,2.70
2022-12-19T07:17:25.943Z,3.25
2022-12-19T07:19:56.965Z,4.75
2022-12-19T07:22:32.163Z,4.85
2022-12-19T07:25:00.809Z,3.58
2022-12-19T07:27:35.479Z,2.92
2022-12-19T07:30:06.087Z,3.33
2022-12-19T07:32:34.062Z,3.35
2022-12-19T07:35:02.700Z,3.50
2022-12-19T07:37:32.004Z,3.80
2022-12-19T07:40:00.090Z,4.35
2022-12-19T07:42:32.202Z,3.65
2022-12-19T07:45:01.497Z,3.88
2022-12-19T07:47:29.627Z,3.65
2022-12-19T07:49:57.701Z,4.03
2022-12-19T07:52:25.734Z,3.95
2022-12-19T07:54:55.094Z,3.00
2022-12-19T07:57:23.169Z,17.52
2022-12-19T07:59:51.097Z,6.13
2022-12-19T08:02:19.362Z,4.93
2022-12-19T08:04:47.546Z,6.00
2022-12-19T08:07:15.761Z,8.75
2022-12-19T08:09:43.867Z,6.72
2022-12-19T08:12:13.317Z,5.35
2022-12-19T08:14:41.312Z,4.70
2022-12-19T08:17:20.300Z,6.43
2022-12-19T08:19:50.077Z,4.47
2022-12-19T08:22:18.118Z,6.10
2022-12-19T08:24:46.465Z,3.08
2022-12-19T08:27:17.192Z,4.28
2022-12-19T08:29:45.462Z,5.40
2022-12-19T08:32:20.236Z,5.60
2022-12-19T08:34:51.694Z,4.43
2022-12-19T08:37:19.796Z,4.00
2022-12-19T08:39:47.825Z,3.78
2022-12-19T08:42:17.271Z,4.25
2022-12-19T08:44:45.330Z,10.85
2022-12-19T08:47:13.537Z,8.32
2022-12-19T08:49:41.580Z,6.68
2022-12-19T08:52:09.618Z,4.93
2022-12-19T08:54:37.952Z,4.75
2022-12-19T08:57:05.917Z,4.00
2022-12-19T08:59:35.269Z,7.60
2022-12-19T09:02:06.264Z,7.25
2022-12-19T09:06:02.216Z,3.63
2022-12-19T09:07:22.906Z,3.42
2022-12-19T09:09:50.795Z,3.45
2022-12-19T09:12:18.805Z,4.38
2022-12-19T09:14:48.240Z,2.42
2022-12-19T09:17:16.334Z,3.08
2022-12-19T09:19:47.932Z,5.00
2022-12-19T09:22:16.562Z,2.78
2022-12-19T09:24:44.715Z,4.28
2022-12-19T09:27:12.709Z,3.03
2022-12-19T09:29:42.635Z,2.80
2022-12-19T09:32:12.282Z,3.67
2022-12-19T09:34:40.276Z,4.15
2022-12-19T09:37:11.717Z,3.92
2022-12-19T09:39:46.759Z,6.07
2022-12-19T09:42:31.556Z,264.45
2022-12-19T09:45:26.956Z,247.20
2022-12-19T09:48:02.886Z,362.90
2022-12-19T09:50:46.128Z,232.70
2022-12-19T09:53:20.333Z,143.52
2022-12-19T09:55:49.454Z,100.00
2022-12-19T09:58:31.373Z,75.97
2022-12-19T10:01:03.038Z,61.17
2022-12-19T10:03:40.355Z,43.95
2022-12-19T10:07:10.474Z,44.25
2022-12-19T10:10:57.336Z,38.00
2022-12-19T10:12:39.748Z,34.45
2022-12-19T10:15:10.730Z,37.30
2022-12-19T10:17:58.388Z,28.08
2022-12-19T10:20:31.387Z,26.77
2022-12-19T10:23:12.503Z,26.73
2022-12-19T10:26:00.534Z,22.52
2022-12-19T10:28:46.229Z,18.88
2022-12-19T10:31:21.963Z,20.27
2022-12-19T10:33:58.330Z,16.73
2022-12-19T10:36:55.894Z,17.52
2022-12-19T10:39:28.652Z,13.82
2022-12-19T10:42:04.012Z,15.70
2022-12-19T10:44:38.221Z,17.65
2022-12-19T10:47:06.595Z,13.32
2022-12-19T10:49:34.613Z,12.95
2022-12-19T10:52:07.937Z,14.05
2022-12-19T10:54:44.094Z,12.93
2022-12-19T10:57:19.975Z,11.77
2022-12-19T10:59:56.686Z,9.90
2022-12-19T11:02:35.214Z,12.23
2022-12-19T11:05:04.907Z,13.10
2022-12-19T11:07:34.282Z,11.77
2022-12-19T11:10:57.723Z,10.75
2022-12-19T11:15:42.544Z,11.85
2022-12-19T11:21:11.576Z,8.65
2022-12-19T11:26:36.642Z,8.82
2022-12-19T11:29:38.749Z,13.93
2022-12-19T11:30:41.837Z,9.45
2022-12-19T11:30:47.441Z,7.63
2022-12-19T11:33:20.055Z,8.52
2022-12-19T11:35:51.914Z,7.60
2022-12-19T11:38:27.245Z,8.77
2022-12-19T11:40:58.946Z,10.43
2022-12-19T11:43:46.894Z,8.20
2022-12-19T11:46:38.088Z,7.55
2022-12-19T11:49:12.217Z,7.25
2022-12-19T11:51:49.595Z,7.25
2022-12-19T11:54:21.756Z,7.22
2022-12-19T11:56:51.601Z,7.60
2022-12-19T11:59:22.309Z,5.97
2022-12-19T12:02:04.893Z,8.40
2022-12-19T12:04:55.977Z,7.38
2022-12-19T12:07:39.888Z,5.82
2022-12-19T12:16:09.471Z,7.05
2022-12-19T12:20:44.117Z,6.72
2022-12-19T12:28:05.305Z,6.22
2022-12-19T12:31:13.966Z,6.10
2022-12-19T12:31:18.058Z,7.18
2022-12-19T12:31:44.725Z,9.38
2022-12-19T12:32:06.045Z,6.18
2022-12-19T12:35:46.566Z,8.25
2022-12-19T12:40:55.409Z,6.70
2022-12-19T12:43:37.298Z,7.32
2022-12-19T12:46:11.014Z,6.07
2022-12-19T12:48:46.662Z,6.05
2022-12-19T12:51:16.001Z,7.10
2022-12-19T12:53:46.695Z,8.07
2022-12-19T12:56:17.475Z,7.47
2022-12-19T12:59:07.251Z,7.80
2022-12-19T13:01:37.952Z,7.60
2022-12-19T13:04:20.885Z,9.43
2022-12-19T13:07:28.234Z,8.73
2022-12-19T13:10:18.857Z,9.63
2022-12-19T13:13:02.330Z,12.15
2022-12-19T13:15:49.518Z,8.95
2022-12-19T13:18:37.645Z,8.23
2022-12-19T13:21:09.257Z,11.05
2022-12-19T13:24:16.201Z,9.40
2022-12-19T13:26:47.542Z,10.88
2022-12-19T13:29:51.059Z,7.93
2022-12-19T13:32:21.781Z,7.47
2022-12-19T13:35:11.322Z,8.35
2022-12-19T13:39:49.255Z,7.50
2022-12-19T13:40:55.317Z,9.85
2022-12-19T13:43:45.951Z,7.97
2022-12-19T13:46:26.675Z,7.38
2022-12-19T13:49:00.620Z,8.18
2022-12-19T13:51:28.632Z,7.75
2022-12-19T13:53:59.890Z,8.25
2022-12-19T13:56:32.075Z,8.38
2022-12-19T13:59:04.364Z,8.05
2022-12-19T14:01:35.112Z,8.40
2022-12-19T14:04:08.920Z,6.95
2022-12-19T14:06:43.119Z,8.15
2022-12-19T14:11:24.698Z,7.72
2022-12-19T14:13:57.635Z,8.43
2022-12-19T14:15:32.485Z,9.82
2022-12-19T14:18:41.733Z,11.38
2022-12-19T14:22:01.852Z,8.40
2022-12-19T14:24:10.385Z,7.30
2022-12-19T14:28:18.784Z,8.15
2022-12-19T14:30:28.971Z,24.20
2022-12-19T14:33:40.742Z,8.68
2022-12-19T14:36:05.320Z,8.50
2022-12-19T14:39:20.516Z,9.82
2022-12-19T14:41:09.125Z,8.05
2022-12-19T14:43:59.552Z,8.13
2022-12-19T14:52:36.193Z,9.88
2022-12-19T14:53:34.063Z,11.90
2022-12-19T14:54:48.108Z,9.60
2022-12-19T14:56:08.436Z,8.73
2022-12-19T14:58:53.872Z,9.48
2022-12-19T15:01:27.183Z,12.52
2022-12-19T15:04:47.833Z,9.40
2022-12-19T15:07:07.693Z,10.00
2022-12-19T15:11:07.711Z,8.52
2022-12-19T15:14:51.165Z,10.48
2022-12-19T15:15:46.189Z,10.68
2022-12-19T15:18:24.250Z,10.55
2022-12-19T15:20:53.325Z,7.85
2022-12-19T15:23:22.619Z,8.75
2022-12-19T15:26:08.224Z,11.82
2022-12-19T15:28:43.558Z,8.98
2022-12-19T15:31:29.860Z,8.38
2022-12-19T15:36:46.244Z,8.90
2022-12-19T15:39:15.097Z,8.60
2022-12-19T15:41:44.250Z,8.70
2022-12-19T15:44:19.355Z,9.10
2022-12-19T15:46:49.210Z,10.68
2022-12-19T15:49:19.357Z,8.38
2022-12-19T15:51:47.539Z,10.82
2022-12-19T15:57:04.318Z,9.68
2022-12-19T15:59:38.693Z,10.15
2022-12-19T16:02:17.714Z,7.85
2022-12-19T16:04:47.504Z,7.85
2022-12-19T16:07:17.167Z,12.38
2022-12-19T16:09:45.390Z,9.05
2022-12-19T16:12:15.977Z,9.95
2022-12-19T16:14:46.394Z,10.00
2022-12-19T16:17:19.203Z,11.60
2022-12-19T16:19:47.357Z,8.95
2022-12-19T16:22:20.409Z,9.25
2022-12-19T16:24:48.415Z,10.45
2022-12-19T16:27:24.906Z,9.88
2022-12-19T16:29:55.490Z,8.77
2022-12-19T16:32:25.586Z,10.40
2022-12-19T16:34:54.559Z,10.18
2022-12-19T16:37:25.837Z,10.00
2022-12-19T16:39:58.265Z,11.60
2022-12-19T16:42:26.292Z,7.75
2022-12-19T16:44:55.597Z,11.10
2022-12-19T16:47:23.621Z,10.60
2022-12-19T16:49:51.597Z,9.43
2022-12-19T16:52:19.705Z,9.35
2022-12-19T16:54:47.609Z,7.88
2022-12-19T16:57:20.701Z,11.27
2022-12-19T16:59:49.599Z,11.13
2022-12-19T17:02:42.171Z,8.55
2022-12-19T17:05:20.166Z,11.13
2022-12-19T17:07:48.963Z,9.52
2022-12-19T17:10:21.331Z,10.00
2022-12-19T17:12:53.864Z,11.40
2022-12-19T17:15:27.457Z,10.40
2022-12-19T17:17:59.288Z,11.68
2022-12-19T17:20:30.358Z,8.88
2022-12-19T17:22:58.411Z,10.05
2022-12-19T17:25:28.563Z,9.25
2022-12-19T17:27:58.417Z,8.50
2022-12-19T17:30:26.470Z,9.38
2022-12-19T17:32:57.211Z,11.07
2022-12-19T17:35:29.450Z,8.55
2022-12-19T17:37:58.454Z,10.27
2022-12-19T17:40:28.812Z,9.38
2022-12-19T17:42:57.499Z,9.70
2022-12-19T17:45:27.049Z,11.18
2022-12-19T17:48:02.524Z,13.65
2022-12-19T17:50:35.791Z,10.02
2022-12-19T17:53:03.879Z,8.02
2022-12-19T17:55:32.310Z,9.20
2022-12-19T17:58:00.335Z,10.70
2022-12-19T18:00:30.958Z,12.57
2022-12-19T18:03:04.899Z,11.00
2022-12-19T18:05:35.828Z,10.98
2022-12-19T18:08:04.910Z,10.80
2022-12-19T18:10:33.610Z,10.57
2022-12-19T18:13:01.552Z,10.65
2022-12-19T18:15:29.508Z,11.95
2022-12-19T18:18:00.085Z,10.02
2022-12-19T18:20:32.115Z,10.15
2022-12-19T18:23:01.451Z,10.30
2022-12-19T18:25:32.063Z,12.88
2022-12-19T18:28:00.090Z,9.95
2022-12-19T18:30:28.119Z,10.20
2022-12-19T18:32:58.708Z,10.70
2022-12-19T18:35:32.516Z,8.10
2022-12-19T18:38:02.169Z,9.88
2022-12-19T18:40:31.857Z,10.55
2022-12-19T18:43:00.275Z,14.07
2022-12-19T18:45:35.398Z,12.05
2022-12-19T18:48:07.328Z,10.75
2022-12-19T18:50:36.699Z,10.18
2022-12-19T18:53:11.711Z,10.05
2022-12-19T18:55:40.201Z,12.23
2022-12-19T18:58:08.167Z,10.63
2022-12-19T19:00:36.822Z,11.65
2022-12-19T19:03:07.160Z,11.48
2022-12-19T19:05:40.213Z,10.05
2022-12-19T19:08:16.071Z,11.50
2022-12-19T19:10:47.918Z,11.88
2022-12-19T19:13:20.192Z,9.10
2022-12-19T19:15:51.328Z,10.43
2022-12-19T19:18:23.850Z,9.75
2022-12-19T19:21:00.779Z,14.38
2022-12-19T19:23:34.261Z,13.15
2022-12-19T19:26:02.263Z,10.68
2022-12-19T19:28:30.301Z,12.57
2022-12-19T19:31:00.337Z,11.63
2022-12-19T19:33:33.647Z,8.80
2022-12-19T19:36:11.965Z,10.60
2022-12-19T19:38:42.525Z,9.25
2022-12-19T19:41:10.668Z,10.15
2022-12-19T19:43:38.759Z,9.70
2022-12-19T19:46:07.013Z,11.93
2022-12-19T19:48:35.162Z,10.02
2022-12-19T19:51:04.660Z,10.52
2022-12-19T19:53:32.659Z,10.82
2022-12-19T19:56:01.998Z,10.68
2022-12-19T19:58:30.482Z,9.30
2022-12-19T20:00:58.521Z,9.50
2022-12-19T20:03:26.990Z,9.90
2022-12-19T20:06:00.769Z,9.50
2022-12-19T20:08:37.041Z,12.35
2022-12-19T20:11:07.697Z,9.65
2022-12-19T20:13:35.752Z,10.75
2022-12-19T20:16:04.233Z,10.43
2022-12-19T20:18:32.284Z,11.35
2022-12-19T20:21:00.372Z,11.07
2022-12-19T20:23:28.839Z,11.10
2022-12-19T20:26:03.624Z,8.70
2022-12-19T20:28:32.369Z,9.63
2022-12-19T20:31:00.524Z,8.95
2022-12-19T20:33:28.608Z,9.68
2022-12-19T20:35:56.985Z,8.93
2022-12-19T20:38:25.215Z,10.98
2022-12-19T20:40:55.872Z,9.30
2022-12-19T20:43:25.787Z,10.75
2022-12-19T20:45:53.848Z,8.27
2022-12-19T20:48:21.747Z,7.05
2022-12-19T20:50:49.749Z,9.43
2022-12-19T20:53:17.912Z,9.50
2022-12-19T20:55:57.567Z,7.35
2022-12-19T20:58:28.541Z,7.30
2022-12-19T21:00:57.300Z,7.05
2022-12-19T21:03:28.611Z,8.20
2022-12-19T21:05:58.117Z,8.32
2022-12-19T21:08:27.417Z,8.95
2022-12-19T21:10:55.802Z,7.90
2022-12-19T21:13:24.878Z,7.65
2022-12-19T21:15:54.966Z,7.10
2022-12-19T21:18:23.378Z,8.57
2022-12-19T21:20:54.434Z,5.85
2022-12-19T21:23:22.906Z,6.82
2022-12-19T21:25:51.193Z,7.40
2022-12-19T21:28:19.410Z,5.82
2022-12-19T21:30:47.479Z,6.95
2022-12-19T21:33:17.028Z,8.02
2022-12-19T21:35:45.029Z,7.70
2022-12-19T21:38:13.006Z,8.77
2022-12-19T21:40:40.989Z,8.10
2022-12-19T21:43:11.987Z,5.97
2022-12-19T21:45:40.484Z,5.97
2022-12-19T21:48:08.426Z,6.57
2022-12-19T21:50:37.846Z,6.03
2022-12-19T21:53:05.920Z,7.22
2022-12-19T21:55:33.858Z,6.72
2022-12-19T21:58:01.815Z,6.07
2022-12-19T22:00:29.764Z,5.97
2022-12-19T22:03:14.966Z,6.50
2022-12-19T22:05:44.891Z,5.60
2022-12-19T22:08:12.800Z,7.47
2022-12-19T22:10:40.800Z,6.15
2022-12-19T22:13:08.871Z,6.03
2022-12-19T22:15:37.492Z,5.30
2022-12-19T22:18:05.777Z,6.40
2022-12-19T22:20:33.723Z,5.40
2022-12-19T22:23:05.926Z,5.63
2022-12-19T22:25:38.004Z,5.90
2022-12-19T22:28:06.273Z,6.50
2022-12-19T22:30:35.623Z,5.93
2022-12-19T22:33:04.726Z,5.20
2022-12-19T22:35:35.308Z,5.15
2022-12-19T22:38:04.696Z,5.18
2022-12-19T22:40:33.198Z,6.22
2022-12-19T22:43:01.154Z,6.53
2022-12-19T22:45:31.366Z,5.97
2022-12-19T22:47:59.718Z,5.15
2022-12-19T22:50:27.699Z,7.45
2022-12-19T22:52:55.710Z,4.43
2022-12-19T22:55:25.097Z,4.43
2022-12-19T22:57:53.222Z,4.93
2022-12-19T23:00:21.793Z,4.55
2022-12-19T23:02:49.998Z,5.18
2022-12-19T23:05:18.317Z,4.03
2022-12-19T23:07:46.486Z,4.70
2022-12-19T23:10:15.099Z,5.45
2022-12-19T23:12:44.421Z,4.57
2022-12-19T23:15:12.617Z,4.88
2022-12-19T23:17:40.580Z,4.07
2022-12-19T23:20:09.854Z,4.60
2022-12-19T23:22:37.898Z,5.07
2022-12-19T23:25:07.158Z,4.38
2022-12-19T23:27:35.188Z,3.90
2022-12-19T23:30:05.639Z,4.82
2022-12-19T23:32:33.623Z,3.65
2022-12-19T23:35:01.687Z,3.33
2022-12-19T23:37:29.749Z,3.85
2022-12-19T23:39:57.741Z,4.00
2022-12-19T23:42:25.799Z,3.22
2022-12-19T23:44:54.008Z,3.20
2022-12-19T23:47:23.455Z,4.80
2022-12-19T23:49:51.447Z,3.67
2022-12-19T23:52:19.363Z,3.72
2022-12-19T23:54:47.591Z,4.03
2022-12-19T23:57:15.768Z,5.18
2022-12-19T23:59:43.766Z,4.43
